| Record Date MM/DD/YYYY | Record Time HH:MM:SS | Record Julian Date NNN day of the year | Air Temperature Max (Degrees Fahrenheit F) | Time Max Air Temperature HH:MM:SS This is the time of max air temp for the prior hour interval listed for record [Time]. | Air Temperature Min (Degrees Fahrenheit F) | Time Min Air Temperature HH:MM:SS This is the time of min air temp for the prior hour interval listed for record [Time]. | Air Temperature Observed (Degrees Fahrenheit F) This is an instantaneous reading at the record [Time]. | Relative Humidity Max (Percent) | Time Max Relative Humidity HH:MM:SS This is the time of max relative humidity for the prior hour interval listed for record [Time]. | Relative Humidity Min (Percent) | Time Min Relative Humidity HH:MM:SS This is the time of min relative humidity for the prior hour interval listed for record [Time]. | Relative Humidity Observed (Percent) This is an instantaneous reading at the record [Time]. | Precipitation (Inches n.nn) rain fall that occurred during the prior hour interval listed for record [Time]. | Wind Speed (Miles Per Hour) Resultant Speed that occurred during the prior hour interval listed for record [Time]. | Wind Direction (Degrees) Resultant Direction that occurred during the prior hour interval listed for record [Time]. | Solar Radiation (Langley's) that occurred during the prior hour interval listed for record [Time]. | Soil Temperature Average at 2 inch depth (Degrees Fahrenheit F) that occurred during the prior hour interval listed for record [Time]. | Soil Temperature Observed at 2 inch depth (Degrees Fahrenheit F) This is an instantaneous reading at the record [Time]. | Soil Temperature Average at 4 inch depth (Degrees Fahrenheit F) that occurred during the prior hour interval listed for record [Time]. | Soil Temperature Observed at 4 inch depth (Degrees Fahrenheit F) This is an instantaneous reading at the record [Time]. |
|---|---|---|---|---|---|---|---|---|---|---|---|---|---|---|---|---|---|---|---|---|
| 08/30/2026 | 0:00:00 | 242 | 72 | 23:00:00 | 71 | 23:59:05 | 71 | 92 | 23:32:05 | 91 | 23:52:05 | 91.5 | 0 | 0.0 | 128 | 0 | 85 | 85 | 86 | 86 |
| 08/30/2026 | 1:00:00 | 242 | 71 | 0:15:02 | 70 | 0:56:01 | 71 | 92 | 0:46:03 | 91 | 0:01:02 | 92.1 | 0 | 0.0 | 0 | 0 | 84 | 84 | 85 | 85 |
| 08/30/2026 | 2:00:00 | 242 | 71 | 1:21:05 | 70 | 1:03:04 | 70 | 93 | 1:14:01 | 91 | 1:38:00 | 91.6 | 0 | 0.0 | 0 | 0 | 83 | 83 | 85 | 84 |
| 08/30/2026 | 3:00:00 | 242 | 71 | 2:55:01 | 70 | 2:15:04 | 71 | 92 | 2:19:01 | 91 | 2:59:03 | 90.8 | 0 | 0.1 | 33 | 0 | 83 | 82 | 84 | 84 |
| 08/30/2026 | 4:00:00 | 242 | 71 | 3:00:03 | 70 | 3:21:02 | 70 | 92 | 3:32:01 | 91 | 3:05:01 | 91.1 | 0 | 0.0 | 31 | 0 | 82 | 82 | 83 | 83 |
| 08/30/2026 | 5:00:00 | 242 | 70 | 4:00:00 | 70 | 4:59:02 | 70 | 93 | 4:49:02 | 91 | 4:00:00 | 92.5 | 0 | 0.0 | 0 | 0 | 81 | 81 | 83 | 83 |
| 08/30/2026 | 6:00:00 | 242 | 70 | 5:18:02 | 69 | 5:41:04 | 70 | 94 | 5:47:03 | 93 | 5:03:01 | 93.5 | 0 | 0.0 | 0 | 0 | 81 | 81 | 82 | 82 |
| 08/30/2026 | 7:00:00 | 242 | 74 | 6:59:04 | 70 | 6:00:03 | 74 | 95 | 6:28:05 | 93 | 7:00:00 | 93.1 | 0 | 0.0 | 278 | 8 | 81 | 81 | 82 | 82 |
| 08/30/2026 | 8:00:00 | 242 | 80 | 7:59:05 | 74 | 7:00:00 | 80 | 93 | 7:00:01 | 80 | 7:59:00 | 80.7 | 0 | 0.9 | 53 | 14 | 81 | 81 | 82 | 82 |
| 08/30/2026 | 9:00:00 | 242 | 87 | 8:58:00 | 81 | 8:00:00 | 87 | 81 | 8:04:03 | 68 | 8:58:03 | 68.33 | 0 | 1.3 | 81 | 37 | 82 | 83 | 82 | 82 |
| 08/30/2026 | 10:00:00 | 242 | 91 | 9:59:04 | 87 | 9:00:02 | 91 | 69 | 9:01:00 | 54 | 9:55:00 | 55.75 | 0 | 1.6 | 82 | 52 | 84 | 86 | 82 | 83 |
| 08/30/2026 | 11:00:00 | 242 | 94 | 10:59:05 | 91 | 10:14:03 | 94 | 57 | 10:14:03 | 48 | 10:59:05 | 47.54 | 0 | 2.5 | 72 | 57 | 88 | 90 | 84 | 85 |
| 08/30/2026 | 12:00:00 | 242 | 97 | 11:45:02 | 93 | 11:58:00 | 94 | 51 | 11:58:01 | 45 | 11:06:03 | 46.43 | 0 | 2.9 | 56 | 60 | 91 | 93 | 86 | 87 |
| 08/30/2026 | 13:00:00 | 242 | 97 | 13:00:00 | 94 | 12:00:00 | 97 | 52 | 12:14:02 | 46 | 12:59:05 | 45.75 | 0 | 3.0 | 40 | 52 | 95 | 96 | 88 | 89 |
| 08/30/2026 | 14:00:00 | 242 | 98 | 13:24:03 | 93 | 13:47:04 | 95 | 53 | 13:49:01 | 43 | 13:04:02 | 49.65 | 0 | 2.7 | 39 | 42 | 97 | 97 | 90 | 91 |
| 08/30/2026 | 15:00:00 | 242 | 98 | 14:48:00 | 92 | 14:26:02 | 93 | 55 | 14:23:05 | 46 | 14:45:00 | 51.45 | 0 | 2.0 | 43 | 25 | 97 | 96 | 91 | 92 |
| 08/30/2026 | 16:00:00 | 242 | 96 | 15:54:02 | 92 | 15:13:03 | 95 | 53 | 15:17:05 | 48 | 15:54:04 | 48.74 | 0 | 2.2 | 331 | 26 | 96 | 96 | 92 | 92 |
| 08/30/2026 | 17:00:00 | 242 | 95 | 16:00:00 | 90 | 16:59:03 | 90 | 59 | 17:00:00 | 49 | 16:00:00 | 58.74 | 0 | 1.7 | 20 | 5 | 96 | 95 | 92 | 92 |
| 08/30/2026 | 18:00:00 | 242 | 90 | 17:00:01 | 89 | 17:46:02 | 89 | 64 | 17:53:03 | 57 | 17:07:02 | 62.93 | 0 | 0.7 | 10 | 4 | 94 | 93 | 91 | 91 |
| 08/30/2026 | 19:00:00 | 242 | 89 | 18:00:00 | 84 | 18:59:05 | 84 | 73 | 19:00:00 | 63 | 18:00:03 | 73.3 | 0 | 1.1 | 102 | 1 | 92 | 91 | 91 | 90 |
| 08/30/2026 | 20:00:00 | 242 | 84 | 19:00:00 | 80 | 19:59:04 | 80 | 81 | 20:00:00 | 73 | 19:00:00 | 81.2 | 0 | 0.2 | 317 | 0 | 91 | 90 | 90 | 89 |
| 08/30/2026 | 21:00:00 | 242 | 80 | 20:00:03 | 78 | 21:00:00 | 78 | 86 | 20:56:02 | 81 | 20:02:02 | 86.2 | 0 | 0.1 | 330 | 0 | 89 | 89 | 89 | 88 |
| 08/30/2026 | 22:00:00 | 242 | 78 | 21:00:02 | 76 | 21:54:02 | 77 | 90 | 21:59:05 | 86 | 21:00:03 | 89.7 | 0 | 0.0 | 0 | 0 | 88 | 88 | 88 | 87 |
| 08/30/2026 | 23:00:00 | 242 | 77 | 22:00:03 | 76 | 22:27:04 | 76 | 92 | 22:59:01 | 90 | 22:25:04 | 91.4 | 0 | 0.0 | 0 | 0 | 87 | 87 | 87 | 87 |
| 08/31/2026 | 0:00:00 | 243 | 76 | 23:03:04 | 76 | 0:00:00 | 76 | 92 | 23:49:02 | 91 | 23:01:00 | 92 | 0 | 0.0 | 0 | 0 | 86 | 86 | 86 | 86 |
| 08/31/2026 | 1:00:00 | 243 | 76 | 0:00:01 | 75 | 0:55:04 | 75 | 93 | 0:58:05 | 92 | 0:16:04 | 92.5 | 0 | 0.0 | 0 | 0 | 85 | 85 | 86 | 86 |
| 08/31/2026 | 2:00:00 | 243 | 75 | 1:24:03 | 74 | 1:57:00 | 74 | 94 | 1:59:02 | 93 | 1:00:01 | 93.6 | 0 | 0.0 | 0 | 0 | 85 | 84 | 85 | 85 |
| 08/31/2026 | 3:00:00 | 243 | 74 | 2:04:02 | 73 | 2:36:00 | 74 | 95 | 2:47:01 | 93 | 2:13:03 | 94.3 | 0 | 0.0 | 0 | 0 | 84 | 84 | 85 | 84 |
| 08/31/2026 | 4:00:00 | 243 | 74 | 3:00:00 | 73 | 3:59:00 | 73 | 95 | 3:33:03 | 94 | 3:09:05 | 94.6 | 0 | 0.0 | 0 | 0 | 83 | 83 | 84 | 84 |
| 08/31/2026 | 5:00:00 | 243 | 73 | 4:49:00 | 72 | 4:30:02 | 72 | 96 | 4:48:01 | 95 | 4:23:02 | 95.1 | 0 | 0.0 | 0 | 0 | 83 | 83 | 84 | 83 |
| 08/31/2026 | 6:00:00 | 243 | 73 | 5:59:05 | 72 | 5:01:00 | 73 | 96 | 5:12:03 | 95 | 5:01:05 | 95.8 | 0 | 0.0 | 28 | 0 | 82 | 82 | 83 | 83 |
| 08/31/2026 | 7:00:00 | 243 | 76 | 6:59:03 | 73 | 6:01:00 | 76 | 96 | 6:31:05 | 94 | 7:00:00 | 94.1 | 0 | 0.0 | 0 | 9 | 82 | 82 | 83 | 83 |
| 08/31/2026 | 8:00:00 | 243 | 82 | 8:00:00 | 76 | 7:00:00 | 82 | 94 | 7:00:00 | 81 | 7:58:00 | 81.1 | 0 | 1.6 | 68 | 24 | 82 | 82 | 83 | 83 |
| 08/31/2026 | 9:00:00 | 243 | 87 | 8:59:05 | 82 | 8:00:00 | 87 | 81 | 8:00:00 | 70 | 8:56:02 | 69.79 | 0 | 2.9 | 77 | 42 | 83 | 84 | 83 | 83 |
| 08/31/2026 | 10:00:00 | 243 | 91 | 9:59:02 | 87 | 9:22:03 | 91 | 69 | 9:00:04 | 60 | 9:59:03 | 60.07 | 0 | 3.0 | 57 | 41 | 85 | 86 | 83 | 84 |
| 08/31/2026 | 11:00:00 | 243 | 93 | 10:42:03 | 89 | 10:30:03 | 92 | 63 | 10:34:02 | 56 | 10:43:00 | 56.99 | 0 | 3.5 | 65 | 41 | 88 | 89 | 84 | 85 |
| 08/31/2026 | 12:00:00 | 243 | 95 | 11:57:05 | 92 | 11:23:02 | 95 | 59 | 11:02:04 | 49 | 11:58:00 | 50.54 | 0 | 3.4 | 72 | 51 | 91 | 92 | 86 | 87 |
| 08/31/2026 | 13:00:00 | 243 | 97 | 12:43:05 | 93 | 12:28:01 | 95 | 52 | 12:28:04 | 46 | 12:40:02 | 48.55 | 0 | 4.1 | 69 | 54 | 93 | 95 | 88 | 89 |
| 08/31/2026 | 14:00:00 | 243 | 98 | 13:59:05 | 94 | 13:29:00 | 98 | 50 | 13:29:05 | 44 | 13:17:03 | 45.06 | 0 | 4.4 | 72 | 54 | 96 | 96 | 90 | 91 |
| 08/31/2026 | 15:00:00 | 243 | 98 | 14:00:03 | 93 | 14:48:05 | 96 | 51 | 14:13:05 | 45 | 14:01:01 | 48.34 | 0 | 3.7 | 70 | 30 | 97 | 97 | 91 | 92 |
| 08/31/2026 | 16:00:00 | 243 | 97 | 15:30:02 | 93 | 15:45:02 | 95 | 52 | 15:46:02 | 46 | 15:33:04 | 47.52 | 0 | 3.4 | 74 | 23 | 97 | 96 | 92 | 92 |
| 08/31/2026 | 17:00:00 | 243 | 97 | 16:20:04 | 93 | 16:45:04 | 94 | 51 | 16:48:03 | 46 | 16:15:00 | 49.7 | 0 | 3.3 | 95 | 12 | 96 | 95 | 92 | 92 |
| 08/31/2026 | 18:00:00 | 243 | 94 | 17:00:00 | 85 | 17:59:05 | 85 | 74 | 17:57:05 | 50 | 17:00:00 | 73.82 | 0 | 2.9 | 177 | 4 | 95 | 94 | 92 | 91 |
| 08/31/2026 | 19:00:00 | 243 | 85 | 18:00:00 | 82 | 19:00:00 | 82 | 77 | 18:28:00 | 71 | 18:15:01 | 75.92 | 0 | 0.9 | 211 | 1 | 93 | 92 | 91 | 90 |
| 08/31/2026 | 20:00:00 | 243 | 82 | 19:00:01 | 80 | 19:54:04 | 80 | 82 | 19:53:02 | 75 | 19:01:05 | 80.8 | 0 | 0.7 | 50 | 0 | 91 | 90 | 90 | 89 |
| 08/31/2026 | 21:00:00 | 243 | 80 | 20:05:04 | 78 | 20:59:05 | 78 | 85 | 20:54:01 | 81 | 20:01:00 | 84.7 | 0 | 0.4 | 25 | 0 | 89 | 89 | 89 | 89 |
| 08/31/2026 | 22:00:00 | 243 | 78 | 21:00:01 | 77 | 21:59:05 | 77 | 89 | 21:58:01 | 85 | 21:00:02 | 88.5 | 0 | 0.2 | 181 | 0 | 88 | 88 | 88 | 88 |
| 08/31/2026 | 23:00:00 | 243 | 78 | 22:37:01 | 77 | 22:07:02 | 78 | 90 | 22:12:05 | 88 | 22:07:02 | 88.6 | 0 | 0.8 | 53 | 0 | 87 | 87 | 87 | 87 |
| 09/01/2026 | 0:00:00 | 244 | 78 | 23:16:01 | 77 | 23:59:03 | 77 | 89 | 0:00:00 | 88 | 23:39:05 | 88.9 | 0 | 0.5 | 52 | 0 | 87 | 86 | 87 | 86 |
| 09/01/2026 | 1:00:00 | 244 | 77 | 0:00:03 | 76 | 0:58:05 | 76 | 91 | 0:34:04 | 89 | 0:00:00 | 90.7 | 0 | 0.0 | 42 | 0 | 86 | 85 | 86 | 86 |
| 09/01/2026 | 2:00:00 | 244 | 77 | 1:55:01 | 75 | 1:15:05 | 77 | 92 | 1:28:04 | 90 | 1:12:01 | 90.9 | 0 | 0.2 | 42 | 0 | 85 | 85 | 86 | 85 |
| 09/01/2026 | 3:00:00 | 244 | 77 | 2:11:03 | 76 | 2:58:01 | 76 | 92 | 2:59:05 | 91 | 2:22:04 | 91.5 | 0 | 1.5 | 36 | 0 | 85 | 84 | 85 | 85 |
| 09/01/2026 | 4:00:00 | 244 | 76 | 3:00:00 | 76 | 3:21:00 | 76 | 92 | 3:37:01 | 91 | 3:05:03 | 91.9 | 0 | 1.8 | 45 | 0 | 84 | 84 | 85 | 84 |
| 09/01/2026 | 5:00:00 | 244 | 76 | 4:00:00 | 75 | 4:58:03 | 75 | 93 | 5:00:00 | 92 | 4:08:01 | 92.9 | 0 | 0.1 | 60 | 0 | 84 | 83 | 84 | 84 |
| 09/01/2026 | 6:00:00 | 244 | 76 | 5:52:03 | 75 | 5:00:01 | 76 | 94 | 5:16:03 | 93 | 5:02:00 | 93.7 | 0 | 0.3 | 46 | 0 | 83 | 83 | 84 | 84 |
| 09/01/2026 | 7:00:00 | 244 | 77 | 6:59:00 | 76 | 6:02:03 | 77 | 94 | 6:07:00 | 91 | 7:00:00 | 90.7 | 0 | 0.0 | 62 | 7 | 83 | 83 | 83 | 83 |
| 09/01/2026 | 8:00:00 | 244 | 81 | 7:59:03 | 77 | 7:00:01 | 81 | 91 | 7:01:04 | 84 | 8:00:00 | 84.1 | 0 | 0.0 | 0 | 17 | 83 | 83 | 82 | 83 |
| 09/01/2026 | 9:00:00 | 244 | 87 | 8:57:05 | 81 | 8:00:01 | 87 | 85 | 8:02:03 | 71 | 8:56:03 | 72.05 | 0 | 0.0 | 0 | 41 | 84 | 84 | 83 | 80 |
| 09/01/2026 | 10:00:00 | 244 | 92 | 9:54:02 | 87 | 9:07:05 | 91 | 72 | 9:01:05 | 58 | 9:54:05 | 60.37 | 0 | 0.0 | 106 | 51 | 86 | 87 | 83 | 84 |
| 09/01/2026 | 11:00:00 | 244 | 91 | 10:00:01 | 89 | 10:34:03 | 91 | 66 | 10:10:03 | 60 | 10:00:03 | 60.97 | 0 | 0.0 | 0 | 35 | 88 | 89 | 85 | 86 |
| 09/01/2026 | 12:00:00 | 244 | 98 | 11:37:02 | 91 | 11:10:03 | 98 | 63 | 11:10:04 | 43 | 11:54:05 | 43.47 | 0 | 0.0 | 109 | 67 | 90 | 92 | 86 | 87 |
| 09/01/2026 | 13:00:00 | 244 | 99 | 12:51:03 | 95 | 12:16:03 | 97 | 49 | 12:41:03 | 42 | 12:00:05 | 47.78 | 0 | 0.0 | 0 | 63 | 93 | 94 | 87 | 89 |
| 09/01/2026 | 14:00:00 | 244 | 101 | 13:18:02 | 95 | 13:31:00 | 97 | 48 | 13:32:01 | 43 | 13:18:02 | 45.56 | 0 | 0.0 | 129 | 52 | 95 | 96 | 89 | 88 |
| 09/01/2026 | 15:00:00 | 244 | 97 | 14:39:01 | 89 | 14:59:05 | 89 | 65 | 15:00:00 | 44 | 14:39:02 | 64.71 | 0 | 0.0 | 119 | 24 | 96 | 95 | 90 | 91 |
| 09/01/2026 | 16:00:00 | 244 | 89 | 15:00:00 | 88 | 15:21:03 | 88 | 68 | 15:23:03 | 65 | 15:00:00 | 67.55 | 0 | 0.0 | 0 | 15 | 95 | 94 | 91 | 90 |
| 09/01/2026 | 17:00:00 | 244 | 89 | 16:05:00 | 87 | 16:45:01 | 88 | 68 | 16:31:04 | 66 | 16:52:04 | 65.99 | 0 | 0.0 | 0 | 13 | 93 | 93 | 90 | 91 |
| 09/01/2026 | 18:00:00 | 244 | 88 | 17:09:03 | 86 | 17:59:03 | 86 | 66 | 17:02:00 | 63 | 17:22:00 | 65.53 | 0 | 0.0 | 0 | 8 | 92 | 92 | 90 | 90 |
| 09/01/2026 | 19:00:00 | 244 | 86 | 18:00:00 | 82 | 19:00:00 | 82 | 75 | 18:59:00 | 66 | 18:00:00 | 75.15 | 0 | 0.0 | 0 | 1 | 91 | 90 | 89 | 86 |
| 09/01/2026 | 20:00:00 | 244 | 82 | 19:00:00 | 79 | 19:58:05 | 79 | 81 | 19:59:00 | 75 | 19:01:04 | 81.1 | 0 | 0.0 | 0 | 0 | 90 | 89 | 88 | 88 |
| 09/01/2026 | 21:00:00 | 244 | 79 | 20:01:03 | 78 | 20:39:04 | 78 | 85 | 20:50:04 | 80 | 20:03:02 | 84.7 | 0 | 0.0 | 0 | 0 | 88 | 88 | 86 | 88 |
| 09/01/2026 | 22:00:00 | 244 | 78 | 21:45:04 | 78 | 21:01:00 | 78 | 85 | 21:32:01 | 84 | 21:56:00 | 84.6 | 0 | 0.0 | 0 | 0 | 87 | 87 | 86 | 85 |
| 09/01/2026 | 23:00:00 | 244 | 78 | 22:00:00 | 77 | 22:59:01 | 77 | 87 | 22:58:01 | 84 | 22:02:00 | 87.4 | 0 | 0.0 | 0 | 0 | 87 | 86 | 86 | 66 |
| 09/02/2026 | 0:00:00 | 245 | 77 | 23:00:04 | 76 | 23:58:02 | 76 | 90 | 23:49:00 | 87 | 23:00:01 | 90.1 | 0 | 0.0 | 0 | 0 | 86 | 85 | 83 | 86 |
| 09/02/2026 | 1:00:00 | 245 | 76 | 0:00:01 | 76 | 0:59:05 | 76 | 91 | 1:00:00 | 90 | 0:00:00 | 91.2 | 0 | 0.0 | 0 | 0 | 85 | 85 | 85 | 85 |
| 09/02/2026 | 2:00:00 | 245 | 76 | 1:25:03 | 75 | 1:58:05 | 75 | 92 | 1:16:02 | 91 | 1:33:05 | 91.7 | 0 | 0.0 | 0 | 0 | 85 | 84 | 85 | 85 |
| 09/02/2026 | 3:00:00 | 245 | 75 | 2:30:01 | 74 | 2:43:05 | 74 | 93 | 3:00:00 | 92 | 2:00:01 | 93.4 | 0 | 0.0 | 0 | 0 | 84 | 84 | 84 | 84 |
| 09/02/2026 | 4:00:00 | 245 | 75 | 3:10:02 | 74 | 3:42:02 | 75 | 95 | 3:50:00 | 93 | 3:37:01 | 94.5 | 0 | 0.0 | 0 | 0 | 83 | 83 | 83 | 84 |
| 09/02/2026 | 5:00:00 | 245 | 75 | 4:08:02 | 74 | 4:53:02 | 74 | 95 | 4:03:02 | 94 | 4:50:01 | 94.2 | 0 | 0.0 | 0 | 0 | 83 | 83 | 84 | 84 |
| 09/02/2026 | 6:00:00 | 245 | 75 | 5:45:01 | 74 | 5:20:00 | 74 | 95 | 5:44:02 | 94 | 5:19:01 | 94.4 | 0 | 0.0 | 0 | 0 | 83 | 82 | 83 | 83 |
| 09/02/2026 | 7:00:00 | 245 | 77 | 6:59:05 | 74 | 6:00:03 | 77 | 95 | 6:27:03 | 92 | 6:59:05 | 92.1 | 0 | 0.0 | 0 | 10 | 82 | 82 | 83 | 83 |
| 09/02/2026 | 8:00:00 | 245 | 84 | 7:59:00 | 77 | 7:00:00 | 84 | 92 | 7:01:00 | 79 | 7:59:00 | 79.7 | 0 | 0.0 | 0 | 26 | 82 | 83 | 82 | 77 |
| 09/02/2026 | 9:00:00 | 245 | 91 | 8:58:05 | 84 | 8:00:01 | 91 | 80 | 8:03:00 | 63 | 8:59:05 | 62.95 | 0 | 0.0 | 0 | 46 | 83 | 84 | 81 | 81 |
| 09/02/2026 | 10:00:00 | 245 | 93 | 9:59:05 | 89 | 9:23:00 | 93 | 66 | 9:24:01 | 54 | 9:51:04 | 56.52 | 0 | 0.0 | 0 | 50 | 85 | 87 | 82 | 84 |
| 09/02/2026 | 11:00:00 | 245 | 94 | 10:42:03 | 92 | 10:12:00 | 93 | 57 | 10:12:05 | 50 | 10:43:05 | 53.12 | 0 | 0.0 | 0 | 47 | 88 | 89 | 84 | 85 |
| 09/02/2026 | 12:00:00 | 245 | 97 | 11:34:00 | 92 | 11:06:01 | 97 | 55 | 11:11:00 | 46 | 11:56:04 | 46.52 | 0 | 0.0 | 60 | 61 | 90 | 92 | 86 | 87 |
| 09/02/2026 | 13:00:00 | 245 | 97 | 12:00:00 | 93 | 12:43:04 | 94 | 53 | 12:48:00 | 46 | 12:00:00 | 50.21 | 0 | 0.0 | 0 | 33 | 93 | 93 | 87 | 87 |
| 09/02/2026 | 14:00:00 | 245 | 95 | 13:14:04 | 85 | 14:00:00 | 85 | 74 | 14:00:00 | 48 | 13:15:01 | 73.62 | 0.01 | 0.0 | 0 | 22 | 93 | 93 | 86 | 89 |
| 09/02/2026 | 15:00:00 | 245 | 85 | 14:00:00 | 81 | 14:14:01 | 83 | 89 | 14:47:00 | 74 | 14:00:00 | 88.7 | 0 | 0.0 | 0 | 16 | 92 | 92 | 89 | 88 |
| 09/02/2026 | 16:00:00 | 245 | 86 | 15:59:05 | 82 | 15:30:03 | 86 | 89 | 15:20:02 | 75 | 15:58:03 | 77.13 | 0 | 0.0 | 0 | 24 | 92 | 92 | 88 | 89 |
| 09/02/2026 | 17:00:00 | 245 | 89 | 16:19:03 | 86 | 16:00:00 | 87 | 81 | 16:33:01 | 66 | 16:11:05 | 72.61 | 0 | 0.0 | 0 | 14 | 92 | 91 | 89 | 88 |
| 09/02/2026 | 18:00:00 | 245 | 87 | 17:00:00 | 82 | 17:59:05 | 82 | 81 | 18:00:00 | 73 | 17:01:05 | 80.5 | 0 | 0.0 | 0 | 5 | 90 | 90 | 87 | 88 |
| 09/02/2026 | 19:00:00 | 245 | 82 | 18:00:00 | 79 | 18:59:01 | 79 | 83 | 19:00:00 | 79 | 18:38:05 | 82.8 | 0 | 0.0 | 0 | 1 | 89 | 88 | 87 | 88 |
| 09/02/2026 | 20:00:00 | 245 | 79 | 19:00:00 | 76 | 19:59:03 | 76 | 90 | 19:59:04 | 83 | 19:00:01 | 89.7 | 0 | 0.0 | 0 | 0 | 87 | 86 | 87 | 87 |
| 09/02/2026 | 21:00:00 | 245 | 76 | 20:00:04 | 76 | 20:55:02 | 76 | 92 | 21:00:00 | 90 | 20:00:00 | 91.7 | 0 | 0.0 | 0 | 0 | 86 | 85 | 86 | 86 |
| 09/02/2026 | 22:00:00 | 245 | 76 | 21:21:03 | 75 | 21:57:04 | 75 | 93 | 21:59:04 | 92 | 21:00:03 | 92.9 | 0 | 0.0 | 0 | 0 | 85 | 84 | 85 | 85 |
| 09/02/2026 | 23:00:00 | 245 | 75 | 22:15:01 | 75 | 22:56:04 | 75 | 94 | 22:59:01 | 93 | 22:02:04 | 93.6 | 0 | 0.0 | 0 | 0 | 84 | 84 | 84 | 84 |
| 09/03/2026 | 0:00:00 | 246 | 75 | 23:00:01 | 74 | 23:26:00 | 74 | 94 | 23:59:00 | 94 | 23:02:01 | 94.2 | 0 | 0.0 | 0 | 0 | 83 | 83 | 84 | 84 |
| 09/03/2026 | 1:00:00 | 246 | 75 | 0:55:00 | 74 | 0:13:00 | 75 | 95 | 0:51:05 | 94 | 0:00:01 | 94.8 | 0 | 0.0 | 0 | 0 | 83 | 82 | 84 | 84 |
| 09/03/2026 | 2:00:00 | 246 | 75 | 1:31:00 | 74 | 1:11:03 | 75 | 96 | 1:19:04 | 94 | 1:04:05 | 95.3 | 0 | 0.0 | 0 | 0 | 82 | 82 | 83 | 83 |
| 09/03/2026 | 3:00:00 | 246 | 75 | 2:04:04 | 74 | 2:46:04 | 75 | 96 | 2:55:01 | 95 | 2:43:02 | 95.6 | 0 | 0.0 | 0 | 0 | 82 | 82 | 83 | 83 |
| 09/03/2026 | 4:00:00 | 246 | 75 | 3:00:03 | 72 | 3:59:04 | 72 | 96 | 3:01:01 | 95 | 3:56:01 | 94.9 | 0 | 0.0 | 0 | 0 | 81 | 81 | 83 | 82 |
| 09/03/2026 | 5:00:00 | 246 | 73 | 4:30:05 | 72 | 4:56:03 | 72 | 96 | 4:29:00 | 95 | 4:00:03 | 95.5 | 0 | 0.0 | 0 | 0 | 81 | 81 | 82 | 82 |
| 09/03/2026 | 6:00:00 | 246 | 72 | 5:05:01 | 71 | 5:42:05 | 72 | 96 | 5:49:03 | 96 | 5:26:00 | 95.8 | 0 | 0.0 | 0 | 0 | 80 | 80 | 81 | 80 |
| 09/03/2026 | 7:00:00 | 246 | 76 | 6:51:04 | 71 | 6:02:01 | 76 | 97 | 6:31:05 | 96 | 6:01:04 | 96.5 | 0 | 0.0 | 0 | 11 | 80 | 80 | 80 | 81 |
| 09/03/2026 | 8:00:00 | 246 | 84 | 7:59:05 | 76 | 7:00:03 | 83 | 97 | 7:11:02 | 80 | 7:59:01 | 80.4 | 0 | 0.0 | 0 | 26 | 80 | 80 | 80 | 79 |
| 09/03/2026 | 9:00:00 | 246 | 88 | 8:48:01 | 84 | 8:00:01 | 86 | 80 | 8:00:00 | 71 | 8:48:05 | 73.93 | 0 | 0.0 | 0 | 37 | 81 | 82 | 80 | 81 |
| 09/03/2026 | 10:00:00 | 246 | 89 | 9:22:00 | 86 | 9:00:02 | 88 | 76 | 9:03:04 | 68 | 9:57:02 | 69.69 | 0 | 0.0 | 0 | 39 | 84 | 85 | 81 | 81 |
| 09/03/2026 | 11:00:00 | 246 | 93 | 10:36:04 | 88 | 10:00:00 | 93 | 70 | 10:00:00 | 49 | 10:27:03 | 52.09 | 0 | 0.0 | 0 | 68 | 87 | 89 | 83 | 84 |
| 09/03/2026 | 12:00:00 | 246 | 96 | 11:34:05 | 92 | 11:01:03 | 96 | 57 | 11:46:05 | 47 | 11:24:04 | 54.54 | 0 | 0.0 | 0 | 67 | 90 | 92 | 84 | 86 |
| 09/03/2026 | 13:00:00 | 246 | 96 | 12:00:03 | 92 | 12:20:05 | 95 | 57 | 12:21:01 | 52 | 12:50:05 | 52.52 | 0 | 0.0 | 0 | 37 | 93 | 93 | 87 | 87 |
| 09/03/2026 | 14:00:00 | 246 | 98 | 13:59:00 | 93 | 13:25:04 | 98 | 57 | 13:31:02 | 45 | 13:58:02 | 46.71 | 0 | 0.0 | 0 | 42 | 93 | 93 | 87 | 87 |
| 09/03/2026 | 15:00:00 | 246 | 98 | 14:00:00 | 94 | 14:50:01 | 96 | 56 | 14:50:02 | 46 | 14:12:04 | 51.96 | 0 | 0.0 | 0 | 43 | 93 | 94 | 88 | 90 |
| 09/03/2026 | 16:00:00 | 246 | 98 | 15:13:03 | 96 | 15:02:02 | 97 | 52 | 15:00:01 | 45 | 15:19:04 | 48.21 | 0 | 0.0 | 240 | 44 | 94 | 94 | 90 | 90 |
| 09/03/2026 | 17:00:00 | 246 | 97 | 16:23:04 | 93 | 17:00:00 | 93 | 56 | 16:59:04 | 48 | 16:00:01 | 55.52 | 0 | 0.0 | 179 | 27 | 93 | 93 | 90 | 88 |
| 09/03/2026 | 18:00:00 | 246 | 93 | 17:00:00 | 76 | 18:00:00 | 76 | 86 | 18:00:00 | 55 | 17:00:00 | 86.1 | 0 | 0.0 | 61 | 9 | 92 | 91 | 88 | 90 |
| 09/03/2026 | 19:00:00 | 246 | 76 | 18:00:01 | 74 | 18:21:01 | 75 | 92 | 18:58:03 | 86 | 18:00:00 | 92 | 0 | 0.0 | 0 | 0 | 90 | 88 | 89 | 88 |
| 09/03/2026 | 20:00:00 | 246 | 75 | 19:00:00 | 74 | 19:59:04 | 74 | 93 | 19:26:01 | 92 | 19:03:04 | 92 | 0 | 0.0 | 0 | 0 | 88 | 87 | 87 | 84 |
| 09/03/2026 | 21:00:00 | 246 | 74 | 20:43:01 | 74 | 20:08:05 | 74 | 93 | 20:43:00 | 92 | 20:03:00 | 93.2 | 0 | 0.0 | 0 | 0 | 86 | 86 | 86 | 86 |
| 09/03/2026 | 22:00:00 | 246 | 74 | 21:30:01 | 74 | 21:58:00 | 74 | 94 | 21:59:04 | 93 | 21:00:00 | 93.9 | 0 | 0.0 | 0 | 0 | 85 | 84 | 86 | 85 |
| 09/03/2026 | 23:00:00 | 246 | 74 | 22:01:03 | 74 | 22:21:00 | 74 | 95 | 22:56:03 | 94 | 22:00:02 | 94.7 | 0 | 0.0 | 0 | 0 | 84 | 84 | 85 | 84 |
| 09/04/2026 | 0:00:00 | 247 | 74 | 23:00:00 | 73 | 23:34:05 | 74 | 96 | 23:57:03 | 95 | 23:02:01 | 95.4 | 0 | 0.0 | 0 | 0 | 83 | 83 | 84 | 84 |
| 09/04/2026 | 1:00:00 | 247 | 74 | 0:12:03 | 73 | 0:42:05 | 73 | 96 | 0:55:03 | 95 | 0:29:02 | 95.7 | 0 | 0.0 | 0 | 0 | 83 | 82 | 84 | 83 |
| 09/04/2026 | 2:00:00 | 247 | 73 | 1:00:02 | 73 | 1:40:01 | 73 | 96 | 1:55:05 | 96 | 1:08:01 | 96 | 0 | 0.0 | 0 | 0 | 82 | 82 | 83 | 83 |
| 09/04/2026 | 3:00:00 | 247 | 73 | 2:00:00 | 73 | 2:59:03 | 73 | 96 | 2:53:02 | 96 | 2:13:04 | 96 | 0 | 0.0 | 0 | 0 | 81 | 81 | 82 | 82 |
| 09/04/2026 | 4:00:00 | 247 | 73 | 3:22:00 | 72 | 3:57:04 | 72 | 97 | 3:21:05 | 96 | 3:03:02 | 96.4 | 0 | 0.0 | 0 | 0 | 81 | 81 | 82 | 82 |
| 09/04/2026 | 5:00:00 | 247 | 72 | 4:02:04 | 72 | 4:59:03 | 72 | 97 | 4:41:05 | 96 | 4:57:02 | 96.3 | 0 | 0.0 | 0 | 0 | 80 | 80 | 81 | 81 |
| 09/04/2026 | 6:00:00 | 247 | 72 | 5:44:01 | 71 | 5:06:01 | 72 | 97 | 5:37:02 | 96 | 5:06:01 | 96.6 | 0 | 0.0 | 0 | 0 | 80 | 80 | 81 | 81 |
| 09/04/2026 | 7:00:00 | 247 | 74 | 6:59:02 | 72 | 6:01:01 | 74 | 97 | 6:58:04 | 97 | 6:02:00 | 97.3 | 0 | 0.0 | 0 | 2 | 80 | 80 | 80 | 79 |
| 09/04/2026 | 8:00:00 | 247 | 76 | 7:53:01 | 74 | 7:12:02 | 76 | 98 | 7:47:00 | 96 | 8:00:00 | 96.3 | 0 | 0.0 | 0 | 9 | 80 | 80 | 80 | 79 |
| 09/04/2026 | 9:00:00 | 247 | 82 | 8:59:05 | 76 | 8:00:01 | 82 | 97 | 8:10:01 | 87 | 8:59:00 | 87.6 | 0 | 0.0 | 0 | 16 | 81 | 82 | 80 | 81 |
| 09/04/2026 | 10:00:00 | 247 | 86 | 9:59:05 | 82 | 9:00:00 | 86 | 88 | 9:00:00 | 77 | 9:59:04 | 76.97 | 0 | 0.0 | 0 | 24 | 83 | 84 | 81 | 81 |
| 09/04/2026 | 11:00:00 | 247 | 90 | 11:00:00 | 86 | 10:00:01 | 90 | 78 | 10:01:01 | 61 | 11:00:00 | 61.01 | 0 | 0.0 | 0 | 43 | 85 | 87 | 82 | 84 |
| 09/04/2026 | 12:00:00 | 247 | 94 | 11:54:05 | 90 | 11:00:00 | 94 | 63 | 11:01:02 | 50 | 11:53:03 | 52.7 | 0 | 0.0 | 0 | 65 | 89 | 91 | 84 | 85 |
| 09/04/2026 | 13:00:00 | 247 | 95 | 12:09:03 | 87 | 12:59:04 | 87 | 68 | 13:00:00 | 52 | 12:06:05 | 68.44 | 0 | 0.0 | 0 | 26 | 92 | 92 | 86 | 87 |
| 09/04/2026 | 14:00:00 | 247 | 88 | 13:13:02 | 82 | 13:57:01 | 82 | 81 | 13:57:04 | 68 | 13:01:01 | 79.43 | 0 | 0.0 | 0 | 8 | 90 | 89 | 87 | 87 |
| 09/04/2026 | 15:00:00 | 247 | 82 | 14:15:01 | 81 | 14:47:05 | 81 | 82 | 14:50:00 | 78 | 14:17:03 | 80.6 | 0 | 0.0 | 0 | 16 | 88 | 88 | 87 | 87 |
| 09/04/2026 | 16:00:00 | 247 | 84 | 15:28:05 | 81 | 15:00:01 | 83 | 81 | 15:07:03 | 73 | 15:22:04 | 78.34 | 0 | 0.0 | 0 | 24 | 88 | 88 | 87 | 86 |
| 09/04/2026 | 17:00:00 | 247 | 83 | 16:42:02 | 83 | 16:09:03 | 83 | 79 | 16:12:04 | 73 | 16:53:02 | 75.25 | 0 | 0.0 | 0 | 14 | 87 | 87 | 86 | 86 |
| 09/04/2026 | 18:00:00 | 247 | 83 | 17:14:05 | 83 | 17:59:04 | 83 | 78 | 17:59:02 | 75 | 17:04:03 | 78.12 | 0 | 0.0 | 0 | 7 | 87 | 86 | 86 | 86 |
| 09/04/2026 | 19:00:00 | 247 | 83 | 18:00:01 | 80 | 18:30:05 | 81 | 84 | 18:28:04 | 76 | 18:57:05 | 76.29 | 0 | 0.0 | 0 | 0 | 86 | 85 | 86 | 85 |
| 09/04/2026 | 20:00:00 | 247 | 81 | 19:00:05 | 77 | 19:59:02 | 77 | 86 | 19:59:02 | 76 | 19:00:00 | 86.4 | 0 | 0.0 | 0 | 0 | 85 | 84 | 85 | 85 |
| 09/04/2026 | 21:00:00 | 247 | 77 | 20:00:01 | 76 | 20:59:03 | 76 | 92 | 21:00:00 | 86 | 20:00:02 | 92 | 0 | 0.0 | 0 | 0 | 84 | 84 | 85 | 84 |
| 09/04/2026 | 22:00:00 | 247 | 76 | 21:00:01 | 75 | 21:59:02 | 75 | 93 | 21:58:00 | 92 | 21:00:04 | 93.4 | 0 | 0.0 | 0 | 0 | 83 | 83 | 84 | 84 |
| 09/04/2026 | 23:00:00 | 247 | 75 | 22:14:01 | 74 | 22:43:05 | 75 | 94 | 22:59:04 | 93 | 22:01:04 | 94.3 | 0 | 0.0 | 0 | 0 | 83 | 82 | 83 | 83 |
| 09/05/2026 | 0:00:00 | 248 | 75 | 23:26:04 | 74 | 23:58:02 | 74 | 95 | 23:26:03 | 94 | 23:00:00 | 94.5 | 0 | 0.0 | 0 | 0 | 82 | 82 | 83 | 83 |
| 09/05/2026 | 1:00:00 | 248 | 74 | 0:22:01 | 74 | 0:59:00 | 74 | 95 | 0:21:03 | 95 | 0:00:04 | 94.9 | 0 | 0.0 | 0 | 0 | 81 | 81 | 83 | 82 |
| 09/05/2026 | 2:00:00 | 248 | 74 | 1:17:02 | 73 | 1:59:01 | 73 | 95 | 1:22:05 | 95 | 1:00:02 | 94.9 | 0 | 0.0 | 0 | 0 | 81 | 81 | 82 | 82 |
| 09/05/2026 | 3:00:00 | 248 | 74 | 2:49:05 | 73 | 2:04:00 | 74 | 96 | 2:47:02 | 95 | 2:00:05 | 95.4 | 0 | 0.0 | 0 | 0 | 80 | 80 | 82 | 82 |
| 09/05/2026 | 4:00:00 | 248 | 74 | 3:54:01 | 73 | 3:20:02 | 74 | 96 | 3:46:05 | 95 | 3:12:03 | 95.8 | 0 | 0.0 | 0 | 0 | 80 | 80 | 81 | 81 |
| 09/05/2026 | 5:00:00 | 248 | 74 | 4:59:02 | 73 | 4:12:00 | 74 | 96 | 4:58:03 | 96 | 4:08:02 | 96 | 0 | 0.0 | 0 | 0 | 80 | 80 | 81 | 81 |
| 09/05/2026 | 6:00:00 | 248 | 74 | 5:01:01 | 73 | 5:41:03 | 74 | 96 | 5:35:03 | 96 | 5:13:03 | 96.1 | 0 | 0.0 | 0 | 0 | 80 | 80 | 81 | 81 |
| 09/05/2026 | 7:00:00 | 248 | 74 | 6:58:05 | 74 | 6:00:04 | 74 | 96 | 6:22:03 | 96 | 6:55:01 | 96 | 0 | 0.0 | 0 | 3 | 80 | 80 | 81 | 81 |
| 09/05/2026 | 8:00:00 | 248 | 78 | 7:59:05 | 74 | 7:00:03 | 78 | 96 | 7:29:05 | 93 | 8:00:00 | 93.3 | 0 | 0.0 | 0 | 13 | 80 | 80 | 81 | 81 |
| 09/05/2026 | 9:00:00 | 248 | 86 | 8:49:04 | 78 | 8:00:00 | 85 | 93 | 8:00:01 | 72 | 8:51:00 | 75.45 | 0 | 0.0 | 0 | 36 | 81 | 82 | 81 | 81 |
| 09/05/2026 | 10:00:00 | 248 | 91 | 9:52:01 | 85 | 9:06:05 | 89 | 77 | 9:05:00 | 61 | 9:50:01 | 61.94 | 0 | 0.0 | 0 | 51 | 84 | 86 | 81 | 82 |
| 09/05/2026 | 11:00:00 | 248 | 93 | 10:58:04 | 87 | 10:09:04 | 92 | 66 | 10:09:05 | 56 | 10:50:00 | 57.3 | 0 | 0.0 | 0 | 57 | 87 | 89 | 83 | 84 |
| 09/05/2026 | 12:00:00 | 248 | 95 | 11:49:03 | 91 | 11:01:05 | 93 | 60 | 11:03:01 | 52 | 11:51:01 | 54.9 | 0 | 0.0 | 101 | 69 | 90 | 92 | 85 | 86 |
| 09/05/2026 | 13:00:00 | 248 | 97 | 12:59:03 | 92 | 12:17:04 | 97 | 57 | 12:18:00 | 50 | 12:55:00 | 50.23 | 0 | 0.0 | 44 | 66 | 93 | 95 | 86 | 88 |
| 09/05/2026 | 14:00:00 | 248 | 97 | 13:50:00 | 95 | 13:07:03 | 97 | 53 | 13:07:02 | 48 | 13:50:02 | 50.33 | 0 | 0.0 | 99 | 66 | 96 | 96 | 89 | 90 |
| 09/05/2026 | 15:00:00 | 248 | 98 | 14:28:02 | 94 | 14:37:02 | 98 | 54 | 14:39:00 | 47 | 14:23:02 | 48.32 | 0 | 0.0 | 107 | 53 | 97 | 97 | 91 | 91 |
| 09/05/2026 | 16:00:00 | 248 | 98 | 15:00:05 | 79 | 15:59:02 | 79 | 89 | 15:52:03 | 48 | 15:01:00 | 86.7 | 0 | 0.0 | 115 | 8 | 96 | 94 | 91 | 91 |
| 09/05/2026 | 17:00:00 | 248 | 79 | 16:04:01 | 78 | 16:42:01 | 78 | 92 | 16:59:00 | 87 | 16:01:00 | 91.5 | 0 | 0.0 | 0 | 3 | 92 | 90 | 90 | 89 |
| 09/05/2026 | 18:00:00 | 248 | 79 | 17:23:00 | 77 | 17:59:05 | 77 | 93 | 17:22:05 | 91 | 17:35:03 | 91.7 | 0 | 0.0 | 0 | 2 | 89 | 88 | 88 | 88 |
| 09/05/2026 | 19:00:00 | 248 | 77 | 18:00:01 | 76 | 18:45:01 | 76 | 93 | 18:59:05 | 92 | 18:00:04 | 92.7 | 0 | 0.0 | 0 | 0 | 87 | 86 | 87 | 86 |
| 09/05/2026 | 20:00:00 | 248 | 76 | 19:00:03 | 75 | 19:57:04 | 75 | 94 | 19:59:05 | 93 | 19:00:02 | 94 | 0 | 0.0 | 0 | 0 | 86 | 85 | 86 | 85 |
| 09/05/2026 | 21:00:00 | 248 | 76 | 20:43:00 | 75 | 20:13:04 | 75 | 95 | 20:42:02 | 94 | 20:00:01 | 94.6 | 0 | 0.0 | 0 | 0 | 85 | 84 | 85 | 84 |
| 09/05/2026 | 22:00:00 | 248 | 76 | 21:00:00 | 75 | 21:58:02 | 75 | 95 | 21:37:01 | 95 | 21:27:01 | 94.9 | 0 | 0.0 | 0 | 0 | 84 | 84 | 84 | 84 |
| 09/05/2026 | 23:00:00 | 248 | 75 | 22:00:04 | 74 | 22:32:02 | 75 | 96 | 22:58:04 | 95 | 22:08:05 | 95.4 | 0 | 0.0 | 0 | 0 | 83 | 83 | 83 | 83 |
| 09/06/2026 | 0:00:00 | 249 | 75 | 23:03:02 | 74 | 23:59:04 | 74 | 96 | 23:45:00 | 95 | 23:17:00 | 95.4 | 0 | 0.0 | 0 | 0 | 82 | 82 | 82 | 82 |
| 09/06/2026 | 1:00:00 | 249 | 74 | 0:00:00 | 74 | 0:44:04 | 74 | 96 | 0:53:05 | 95 | 0:01:00 | 95.9 | 0 | 0.0 | 0 | 0 | 82 | 82 | 83 | 83 |
| 09/06/2026 | 2:00:00 | 249 | 74 | 1:51:00 | 74 | 1:35:05 | 74 | 96 | 1:50:05 | 96 | 1:30:02 | 96.1 | 0 | 0.0 | 0 | 0 | 81 | 81 | 82 | 82 |
| 09/06/2026 | 3:00:00 | 249 | 74 | 2:59:05 | 74 | 2:11:02 | 74 | 97 | 2:57:05 | 96 | 2:05:00 | 96.6 | 0 | 0.0 | 0 | 0 | 81 | 81 | 81 | 81 |
| 09/06/2026 | 4:00:00 | 249 | 74 | 3:50:05 | 74 | 3:11:05 | 74 | 97 | 3:45:02 | 96 | 3:03:04 | 96.8 | 0 | 0.0 | 0 | 0 | 81 | 81 | 82 | 82 |
| 09/06/2026 | 5:00:00 | 249 | 75 | 4:59:04 | 74 | 4:00:01 | 75 | 97 | 4:59:00 | 97 | 4:00:03 | 97.1 | 0 | 0.0 | 0 | 0 | 81 | 81 | 82 | 82 |
| 09/06/2026 | 6:00:00 | 249 | 75 | 5:23:00 | 74 | 5:43:02 | 74 | 97 | 5:00:00 | 97 | 5:31:02 | 97 | 0 | 0.0 | 0 | 0 | 80 | 80 | 81 | 81 |
| 09/06/2026 | 7:00:00 | 249 | 75 | 6:59:01 | 74 | 6:17:02 | 75 | 97 | 6:45:05 | 97 | 6:24:00 | 97 | 0 | 0.0 | 0 | 3 | 80 | 80 | 81 | 81 |
| 09/06/2026 | 8:00:00 | 249 | 76 | 7:45:01 | 75 | 7:18:04 | 76 | 97 | 7:26:01 | 97 | 7:41:04 | 96.6 | 0 | 0.0 | 0 | 9 | 81 | 81 | 81 | 81 |
| 09/06/2026 | 9:00:00 | 249 | 79 | 8:59:05 | 76 | 8:00:00 | 79 | 97 | 8:13:05 | 91 | 8:58:01 | 91.2 | 0 | 0.0 | 0 | 28 | 82 | 82 | 81 | 82 |
| 09/06/2026 | 10:00:00 | 249 | 86 | 10:00:00 | 79 | 9:00:00 | 86 | 91 | 9:00:00 | 75 | 9:58:05 | 76.65 | 0 | 0.0 | 0 | 53 | 84 | 85 | 82 | 82 |
| 09/06/2026 | 11:00:00 | 249 | 88 | 11:00:00 | 85 | 10:11:00 | 88 | 77 | 10:07:04 | 71 | 10:50:04 | 72.67 | 0 | 0.0 | 0 | 63 | 87 | 89 | 83 | 83 |
| 09/06/2026 | 12:00:00 | 249 | 92 | 11:57:01 | 88 | 11:03:04 | 91 | 74 | 11:04:02 | 66 | 11:58:03 | 66.89 | 0 | 0.0 | 0 | 71 | 90 | 91 | 85 | 86 |
| 09/06/2026 | 13:00:00 | 249 | 94 | 12:58:00 | 90 | 12:20:04 | 94 | 70 | 12:10:02 | 62 | 12:58:02 | 62.6 | 0 | 0.0 | 0 | 61 | 92 | 92 | 87 | 88 |
| 09/06/2026 | 14:00:00 | 249 | 95 | 13:34:05 | 92 | 13:48:03 | 94 | 64 | 13:22:01 | 58 | 13:35:01 | 58.41 | 0 | 0.0 | 0 | 52 | 93 | 93 | 88 | 87 |
| 09/06/2026 | 15:00:00 | 249 | 96 | 14:21:03 | 94 | 14:17:02 | 95 | 61 | 14:24:04 | 56 | 14:49:02 | 57 | 0 | 0.0 | 0 | 59 | 94 | 94 | 88 | 89 |
| 09/06/2026 | 16:00:00 | 249 | 96 | 15:12:03 | 93 | 15:35:00 | 94 | 61 | 15:37:03 | 55 | 15:03:03 | 59.97 | 0 | 0.0 | 0 | 37 | 94 | 94 | 90 | 90 |
| Average | 82.88 | 80.1 | 81.61 | 82.48 | 76.67 | 79.4 | 0 | 0.36 | 16.68 | 86.55 | 86.57 | 85.15 | 85.08 | |||||||
| Total | 0.01 |